createdAt,value
2017-04-03T00:01:08.380Z,988.6
2017-04-03T00:02:18.777Z,988.67
2017-04-03T00:03:28.819Z,988.67
2017-04-03T00:04:39.188Z,988.69
2017-04-03T00:05:49.215Z,988.68
2017-04-03T00:06:59.566Z,988.65
2017-04-03T00:08:09.594Z,988.67
2017-04-03T00:09:20.038Z,988.66
2017-04-03T00:10:30.065Z,988.63
2017-04-03T00:11:40.088Z,988.67
2017-04-03T00:12:50.438Z,988.67
2017-04-03T00:14:00.781Z,988.66
2017-04-03T00:15:10.815Z,988.73
2017-04-03T00:16:21.174Z,988.76
2017-04-03T00:17:31.515Z,988.75
2017-04-03T00:18:41.548Z,988.77
2017-04-03T00:19:51.578Z,988.8
2017-04-03T00:21:01.930Z,988.8
2017-04-03T00:22:12.293Z,988.81
2017-04-03T00:23:22.652Z,988.83
2017-04-03T00:24:32.699Z,988.89
2017-04-03T00:25:43.046Z,988.86
2017-04-03T00:26:53.391Z,988.85
2017-04-03T00:28:03.468Z,988.85
2017-04-03T00:29:13.828Z,988.94
2017-04-03T00:30:24.180Z,988.9
2017-04-03T00:31:34.222Z,988.92
2017-04-03T00:32:44.589Z,988.99
2017-04-03T00:33:54.953Z,988.95
2017-04-03T00:35:04.982Z,988.99
2017-04-03T00:36:15.372Z,988.93
2017-04-03T00:37:25.727Z,988.92
2017-04-03T00:38:36.084Z,988.93
2017-04-03T00:39:46.448Z,988.91
2017-04-03T00:40:56.805Z,988.92
2017-04-03T00:42:06.512Z,988.93
2017-04-03T00:43:16.851Z,988.92
2017-04-03T00:44:27.195Z,988.95
2017-04-03T00:45:37.554Z,988.89
2017-04-03T00:46:47.914Z,988.93
2017-04-03T00:47:58.264Z,988.98
2017-04-03T00:49:08.297Z,988.97
2017-04-03T00:50:18.029Z,989
2017-04-03T00:51:28.074Z,989.02
2017-04-03T00:52:38.448Z,989.03
2017-04-03T00:53:48.802Z,989.02
2017-04-03T00:54:59.161Z,989
2017-04-03T00:56:09.529Z,989
2017-04-03T00:57:19.900Z,989.01
2017-04-03T00:58:30.249Z,989.05
2017-04-03T00:59:40.609Z,989.03
2017-04-03T01:00:50.978Z,988.99
2017-04-03T01:02:01.337Z,988.97
2017-04-03T01:03:11.758Z,988.99
2017-04-03T01:04:22.126Z,988.99
2017-04-03T01:05:32.501Z,989.03
2017-04-03T01:06:42.518Z,989.09
2017-04-03T01:07:52.554Z,989.04
2017-04-03T01:09:02.577Z,989.05
2017-04-03T01:10:12.639Z,989.04
2017-04-03T01:11:22.983Z,989.07
2017-04-03T01:12:33.016Z,989.08
2017-04-03T01:13:43.366Z,989.04
2017-04-03T01:14:53.395Z,989.08
2017-04-03T01:16:03.435Z,989.07
2017-04-03T01:17:13.783Z,989.07
2017-04-03T01:18:24.136Z,989.08
2017-04-03T01:19:34.493Z,989.11
2017-04-03T01:20:44.531Z,989.1
2017-04-03T01:21:54.891Z,989.09
2017-04-03T01:23:05.243Z,989.12
2017-04-03T01:24:15.604Z,989.09
2017-04-03T01:25:25.969Z,989.06
2017-04-03T01:26:36.333Z,989.11
2017-04-03T01:27:46.695Z,989.11
2017-04-03T01:28:57.054Z,989.13
2017-04-03T01:30:07.406Z,989.1
2017-04-03T01:31:17.758Z,989.09
2017-04-03T01:32:28.104Z,989.12
2017-04-03T01:33:38.131Z,989.08
2017-04-03T01:34:48.477Z,989.17
2017-04-03T01:35:58.813Z,989.13
2017-04-03T01:37:09.153Z,989.15
2017-04-03T01:38:19.505Z,989.16
2017-04-03T01:39:29.862Z,989.16
2017-04-03T01:40:40.267Z,989.15
2017-04-03T01:41:50.624Z,989.21
2017-04-03T01:43:00.982Z,989.22
2017-04-03T01:44:11.339Z,989.22
2017-04-03T01:45:21.683Z,989.25
2017-04-03T01:46:32.040Z,989.28
2017-04-03T01:47:42.391Z,989.32
2017-04-03T01:48:52.747Z,989.37
2017-04-03T01:50:03.101Z,989.39
2017-04-03T01:51:13.131Z,989.44
2017-04-03T01:52:23.450Z,989.5
2017-04-03T01:53:33.723Z,989.43
2017-04-03T01:54:44.029Z,989.46
2017-04-03T01:55:54.289Z,989.48
2017-04-03T01:57:04.548Z,989.5
2017-04-03T01:58:14.805Z,989.53
2017-04-03T01:59:25.060Z,989.56
2017-04-03T02:00:35.321Z,989.57
2017-04-03T02:01:45.262Z,989.55
2017-04-03T02:02:55.521Z,989.58
2017-04-03T02:04:05.779Z,989.57
2017-04-03T02:05:16.130Z,989.59
2017-04-03T02:06:26.392Z,989.55
2017-04-03T02:07:36.648Z,989.55
2017-04-03T02:08:46.275Z,989.59
2017-04-03T02:09:56.536Z,989.55
2017-04-03T02:11:06.793Z,989.5
2017-04-03T02:12:17.048Z,989.53
2017-04-03T02:13:27.329Z,989.53
2017-04-03T02:14:37.587Z,989.53
2017-04-03T02:15:47.844Z,989.52
2017-04-03T02:16:58.104Z,989.54
2017-04-03T02:18:08.362Z,989.52
2017-04-03T02:19:18.617Z,989.48
2017-04-03T02:20:28.881Z,989.51
2017-04-03T02:21:39.145Z,989.5
2017-04-03T02:22:49.091Z,989.5
2017-04-03T02:23:59.345Z,989.47
2017-04-03T02:25:09.600Z,989.51
2017-04-03T02:26:19.857Z,989.5
2017-04-03T02:27:30.118Z,989.52
2017-04-03T02:28:40.062Z,989.52
2017-04-03T02:29:50.322Z,989.58
2017-04-03T02:31:00.587Z,989.6
2017-04-03T02:32:10.843Z,989.6
2017-04-03T02:33:21.105Z,989.61
2017-04-03T02:34:31.363Z,989.58
2017-04-03T02:35:41.626Z,989.66
2017-04-03T02:36:51.571Z,989.66
2017-04-03T02:38:01.513Z,989.64
2017-04-03T02:39:11.454Z,989.67
2017-04-03T02:40:21.720Z,989.65
2017-04-03T02:41:31.663Z,989.69
2017-04-03T02:42:41.927Z,989.63
2017-04-03T02:43:52.188Z,989.59
2017-04-03T02:45:02.450Z,989.59
2017-04-03T02:46:12.711Z,989.56
2017-04-03T02:47:22.972Z,989.56
2017-04-03T02:48:33.229Z,989.58
2017-04-03T02:49:43.483Z,989.59
2017-04-03T02:50:53.424Z,989.57
2017-04-03T02:52:03.684Z,989.61
2017-04-03T02:53:13.948Z,989.56
2017-04-03T02:54:24.201Z,989.58
2017-04-03T02:55:34.459Z,989.54
2017-04-03T02:56:44.716Z,989.53
2017-04-03T02:57:54.993Z,989.51
2017-04-03T02:59:04.939Z,989.57
2017-04-03T03:00:15.190Z,989.56
2017-04-03T03:01:25.127Z,989.58
2017-04-03T03:02:35.067Z,989.59
2017-04-03T03:03:45.320Z,989.56
2017-04-03T03:04:55.577Z,989.58
2017-04-03T03:06:05.834Z,989.56
2017-04-03T03:07:16.108Z,989.53
2017-04-03T03:08:26.050Z,989.56
2017-04-03T03:09:36.305Z,989.57
2017-04-03T03:10:45.929Z,989.55
2017-04-03T03:11:56.187Z,989.55
2017-04-03T03:13:06.132Z,989.57
2017-04-03T03:14:16.076Z,989.61
2017-04-03T03:15:26.019Z,989.6
2017-04-03T03:16:36.272Z,989.59
2017-04-03T03:17:46.532Z,989.6
2017-04-03T03:18:56.787Z,989.57
2017-04-03T03:20:06.730Z,989.58
2017-04-03T03:21:16.671Z,989.56
2017-04-03T03:22:26.611Z,989.57
2017-04-03T03:23:36.873Z,989.62
2017-04-03T03:24:46.814Z,989.58
2017-04-03T03:25:56.758Z,989.61
2017-04-03T03:27:06.702Z,989.59
2017-04-03T03:28:16.955Z,989.62
2017-04-03T03:29:26.891Z,989.64
2017-04-03T03:30:36.834Z,989.63
2017-04-03T03:31:46.774Z,989.67
2017-04-03T03:32:56.716Z,989.62
2017-04-03T03:34:06.966Z,989.65
2017-04-03T03:35:16.914Z,989.62
2017-04-03T03:36:26.888Z,989.6
2017-04-03T03:37:37.148Z,989.62
2017-04-03T03:38:47.406Z,989.6
2017-04-03T03:39:57.347Z,989.63
2017-04-03T03:41:07.610Z,989.6
2017-04-03T03:42:17.875Z,989.59
2017-04-03T03:43:28.130Z,989.6
2017-04-03T03:44:38.384Z,989.68
2017-04-03T03:45:48.649Z,989.66
2017-04-03T03:46:58.593Z,989.72
2017-04-03T03:48:08.856Z,989.72
2017-04-03T03:49:19.110Z,989.74
2017-04-03T03:50:29.376Z,989.79
2017-04-03T03:51:39.637Z,989.76
2017-04-03T03:52:49.895Z,989.76
2017-04-03T03:53:59.852Z,989.78
2017-04-03T03:55:10.109Z,989.77
2017-04-03T03:56:20.366Z,989.73
2017-04-03T03:57:30.631Z,989.78
2017-04-03T03:58:40.577Z,989.74
2017-04-03T03:59:50.839Z,989.72
2017-04-03T04:01:00.783Z,989.73
2017-04-03T04:02:11.036Z,989.73
2017-04-03T04:03:21.293Z,989.73
2017-04-03T04:04:31.241Z,989.74
2017-04-03T04:05:41.185Z,989.7
2017-04-03T04:06:51.450Z,989.74
2017-04-03T04:08:01.707Z,989.77
2017-04-03T04:09:11.964Z,989.77
2017-04-03T04:10:21.906Z,989.75
2017-04-03T04:11:32.166Z,989.75
2017-04-03T04:12:42.423Z,989.74
2017-04-03T04:13:52.688Z,989.79
2017-04-03T04:15:02.943Z,989.8
2017-04-03T04:16:12.572Z,989.81
2017-04-03T04:17:22.831Z,989.82
2017-04-03T04:18:32.776Z,989.85
2017-04-03T04:19:43.034Z,989.79
2017-04-03T04:20:53.294Z,989.81
2017-04-03T04:22:03.240Z,989.82
2017-04-03T04:23:13.199Z,989.86
2017-04-03T04:24:23.145Z,989.84
2017-04-03T04:25:33.407Z,989.83
2017-04-03T04:26:43.659Z,989.85
2017-04-03T04:27:53.917Z,989.86
2017-04-03T04:29:04.173Z,989.87
2017-04-03T04:30:14.430Z,989.88
2017-04-03T04:31:24.688Z,989.88
2017-04-03T04:32:34.949Z,989.93
2017-04-03T04:33:45.203Z,989.94
2017-04-03T04:34:55.144Z,989.96
2017-04-03T04:36:05.399Z,989.96
2017-04-03T04:37:15.065Z,989.94
2017-04-03T04:38:25.050Z,989.93
2017-04-03T04:39:35.304Z,990
2017-04-03T04:40:45.562Z,989.96
2017-04-03T04:41:55.812Z,989.94
2017-04-03T04:43:05.753Z,989.98
2017-04-03T04:44:15.697Z,989.95
2017-04-03T04:45:25.950Z,989.98
2017-04-03T04:46:36.206Z,989.93
2017-04-03T04:47:46.515Z,990.03
2017-04-03T04:48:57.076Z,990
2017-04-03T04:50:07.356Z,990.08
2017-04-03T04:51:17.612Z,990.03
2017-04-03T04:52:27.559Z,990.06
2017-04-03T04:53:37.818Z,990.03
2017-04-03T04:54:48.083Z,990.04
2017-04-03T04:55:58.342Z,989.97
2017-04-03T04:57:08.597Z,990.01
2017-04-03T04:58:18.852Z,989.97
2017-04-03T04:59:28.797Z,990.06
2017-04-03T05:00:38.765Z,990.03
2017-04-03T05:01:49.024Z,990.08
2017-04-03T05:02:58.971Z,990.11
2017-04-03T05:04:09.231Z,990.13
2017-04-03T05:05:19.492Z,990.12
2017-04-03T05:06:29.126Z,990.16
2017-04-03T05:07:39.385Z,990.17
2017-04-03T05:08:49.327Z,990.18
2017-04-03T05:09:59.277Z,990.17
2017-04-03T05:11:09.536Z,990.16
2017-04-03T05:12:19.478Z,990.16
2017-04-03T05:13:29.739Z,990.22
2017-04-03T05:14:39.996Z,990.23
2017-04-03T05:15:49.941Z,990.24
2017-04-03T05:16:59.890Z,990.27
2017-04-03T05:18:10.165Z,990.25
2017-04-03T05:19:20.416Z,990.25
2017-04-03T05:20:30.673Z,990.26
2017-04-03T05:21:40.930Z,990.28
2017-04-03T05:22:51.192Z,990.32
2017-04-03T05:24:01.455Z,990.35
2017-04-03T05:25:11.716Z,990.39
2017-04-03T05:26:22.021Z,990.42
2017-04-03T05:27:32.284Z,990.42
2017-04-03T05:28:42.241Z,990.44
2017-04-03T05:29:52.198Z,990.48
2017-04-03T05:31:02.450Z,990.49
2017-04-03T05:32:12.709Z,990.52
2017-04-03T05:33:22.968Z,990.54
2017-04-03T05:34:33.224Z,990.58
2017-04-03T05:35:43.486Z,990.59
2017-04-03T05:36:53.430Z,990.59
2017-04-03T05:38:03.373Z,990.59
2017-04-03T05:39:13.323Z,990.63
2017-04-03T05:40:23.268Z,990.66
2017-04-03T05:41:33.528Z,990.68
2017-04-03T05:42:43.784Z,990.7
2017-04-03T05:43:54.042Z,990.71
2017-04-03T05:45:04.297Z,990.75
2017-04-03T05:46:14.278Z,990.75
2017-04-03T05:47:24.533Z,990.78
2017-04-03T05:48:34.799Z,990.77
2017-04-03T05:49:45.063Z,990.8
2017-04-03T05:50:55.320Z,990.84
2017-04-03T05:52:05.580Z,990.85
2017-04-03T05:53:15.845Z,990.89
2017-04-03T05:54:25.790Z,990.94
2017-04-03T05:55:35.733Z,990.97
2017-04-03T05:56:45.996Z,990.97
2017-04-03T05:57:56.256Z,990.98
2017-04-03T05:59:06.215Z,991
2017-04-03T06:00:16.473Z,991.02
2017-04-03T06:01:26.463Z,990.98
2017-04-03T06:02:36.101Z,990.99
2017-04-03T06:03:46.365Z,991.01
2017-04-03T06:04:56.341Z,990.97
2017-04-03T06:06:06.289Z,990.99
2017-04-03T06:07:16.546Z,991.02
2017-04-03T06:08:26.805Z,991.02
2017-04-03T06:09:36.431Z,991
2017-04-03T06:10:46.689Z,991.03
2017-04-03T06:11:56.944Z,991.08
2017-04-03T06:13:07.196Z,991.1
2017-04-03T06:14:17.453Z,991.11
2017-04-03T06:15:27.399Z,991.19
2017-04-03T06:16:37.704Z,991.19
2017-04-03T06:17:47.650Z,991.24
2017-04-03T06:18:57.910Z,991.25
2017-04-03T06:20:08.168Z,991.27
2017-04-03T06:21:18.429Z,991.34
2017-04-03T06:22:28.687Z,991.32
2017-04-03T06:23:38.947Z,991.3
2017-04-03T06:24:49.203Z,991.32
2017-04-03T06:25:59.463Z,991.32
2017-04-03T06:27:09.410Z,991.35
2017-04-03T06:28:19.669Z,991.35
2017-04-03T06:29:29.926Z,991.34
2017-04-03T06:30:40.181Z,991.42
2017-04-03T06:31:50.119Z,991.38
2017-04-03T06:33:00.379Z,991.41
2017-04-03T06:34:10.639Z,991.35
2017-04-03T06:35:20.895Z,991.4
2017-04-03T06:36:31.151Z,991.43
2017-04-03T06:37:41.095Z,991.4
2017-04-03T06:38:51.353Z,991.43
2017-04-03T06:40:01.622Z,991.44
2017-04-03T06:41:11.563Z,991.44
2017-04-03T06:42:21.820Z,991.46
2017-04-03T06:43:31.764Z,991.51
2017-04-03T06:44:42.021Z,991.51
2017-04-03T06:45:51.646Z,991.51
2017-04-03T06:47:01.907Z,991.55
2017-04-03T06:48:12.164Z,991.56
2017-04-03T06:49:22.111Z,991.55
2017-04-03T06:50:32.063Z,991.56
2017-04-03T06:51:41.999Z,991.53
2017-04-03T06:52:52.258Z,991.58
2017-04-03T06:54:02.207Z,991.58
2017-04-03T06:55:12.159Z,991.59
2017-04-03T06:56:22.108Z,991.59
2017-04-03T06:57:32.412Z,991.62
2017-04-03T06:58:42.667Z,991.56
2017-04-03T06:59:52.923Z,991.56
2017-04-03T07:01:02.877Z,991.56
2017-04-03T07:02:13.137Z,991.56
2017-04-03T07:03:23.080Z,991.57
2017-04-03T07:04:33.030Z,991.54
2017-04-03T07:05:42.970Z,991.56
2017-04-03T07:06:53.251Z,991.6
2017-04-03T07:08:03.509Z,991.62
2017-04-03T07:09:13.449Z,991.61
2017-04-03T07:10:23.711Z,991.61
2017-04-03T07:11:33.971Z,991.7
2017-04-03T07:12:44.252Z,991.69
2017-04-03T07:13:54.522Z,991.68
2017-04-03T07:15:04.776Z,991.7
2017-04-03T07:16:14.718Z,991.69
2017-04-03T07:17:24.351Z,991.63
2017-04-03T07:18:34.604Z,991.68
2017-04-03T07:19:44.870Z,991.71
2017-04-03T07:20:54.820Z,991.76
2017-04-03T07:22:05.082Z,991.76
2017-04-03T07:23:15.348Z,991.78
2017-04-03T07:24:25.607Z,991.79
2017-04-03T07:25:35.869Z,991.76
2017-04-03T07:26:45.812Z,991.75
2017-04-03T07:27:56.078Z,991.71
2017-04-03T07:29:06.359Z,991.72
2017-04-03T07:30:16.620Z,991.69
2017-04-03T07:31:26.563Z,991.72
2017-04-03T07:32:36.855Z,991.66
2017-04-03T07:33:47.147Z,991.69
2017-04-03T07:34:57.425Z,991.66
2017-04-03T07:36:07.371Z,991.7
2017-04-03T07:37:17.643Z,991.72
2017-04-03T07:38:27.897Z,991.69
2017-04-03T07:39:37.529Z,991.72
2017-04-03T07:40:47.791Z,991.71
2017-04-03T07:41:58.098Z,991.71
2017-04-03T07:43:08.361Z,991.69
2017-04-03T07:44:18.627Z,991.64
2017-04-03T07:45:28.570Z,991.72
2017-04-03T07:46:38.519Z,991.71
2017-04-03T07:47:48.772Z,991.72
2017-04-03T07:48:59.029Z,991.7
2017-04-03T07:51:22.614Z,991.73
2017-04-03T07:52:32.877Z,991.72
2017-04-03T07:53:43.150Z,991.72
2017-04-03T07:54:53.411Z,991.72
2017-04-03T07:56:03.707Z,991.76
2017-04-03T07:57:14.532Z,991.74
2017-04-03T07:58:24.479Z,991.81
2017-04-03T07:59:34.609Z,991.83
2017-04-03T08:00:44.559Z,991.85
2017-04-03T08:01:54.820Z,991.91
2017-04-03T08:03:04.771Z,991.88
2017-04-03T08:04:15.038Z,991.87
2017-04-03T08:05:25.315Z,991.84
2017-04-03T08:06:35.264Z,991.85
2017-04-03T08:07:45.214Z,991.88
2017-04-03T08:08:55.475Z,991.92
2017-04-03T08:10:05.734Z,991.9
2017-04-03T08:11:15.996Z,991.88
2017-04-03T08:12:26.301Z,991.89
2017-04-03T08:13:36.257Z,991.89
2017-04-03T08:14:46.536Z,991.89
2017-04-03T08:15:56.483Z,991.9
2017-04-03T08:17:06.746Z,991.92
2017-04-03T08:18:16.705Z,991.9
2017-04-03T08:19:26.970Z,991.92
2017-04-03T08:20:37.231Z,991.97
2017-04-03T08:21:47.486Z,992.03
2017-04-03T08:22:57.746Z,991.99
2017-04-03T08:24:08.011Z,991.97
2017-04-03T08:25:17.961Z,991.97
2017-04-03T08:26:28.222Z,991.95
2017-04-03T08:27:37.855Z,991.91
2017-04-03T08:28:47.809Z,991.89
2017-04-03T08:29:58.068Z,991.9
2017-04-03T08:31:08.019Z,991.89
2017-04-03T08:32:18.284Z,991.91
2017-04-03T08:33:28.549Z,991.87
2017-04-03T08:34:38.820Z,991.86
2017-04-03T08:35:49.083Z,991.82
2017-04-03T08:36:59.346Z,991.83
2017-04-03T08:38:09.607Z,991.84
2017-04-03T08:39:19.870Z,991.82
2017-04-03T08:40:30.138Z,991.88
2017-04-03T08:41:39.772Z,991.87
2017-04-03T08:42:50.039Z,991.94
2017-04-03T08:44:00.314Z,991.93
2017-04-03T08:45:10.581Z,991.92
2017-04-03T08:46:20.843Z,991.98
2017-04-03T08:47:31.122Z,991.93
2017-04-03T08:48:40.750Z,991.98
2017-04-03T08:49:51.011Z,991.94
2017-04-03T08:51:00.962Z,991.93
2017-04-03T08:52:11.231Z,991.96
2017-04-03T08:53:21.488Z,991.95
2017-04-03T08:54:31.746Z,991.98
2017-04-03T08:55:41.693Z,991.98
2017-04-03T08:56:51.957Z,991.97
2017-04-03T08:58:02.223Z,991.97
2017-04-03T08:59:12.174Z,991.98
2017-04-03T09:00:22.443Z,992.01
2017-04-03T09:01:32.705Z,992
2017-04-03T09:02:42.653Z,992.03
2017-04-03T09:03:52.928Z,992.03
2017-04-03T09:05:03.196Z,992
2017-04-03T09:06:13.149Z,992
2017-04-03T09:07:23.423Z,992
2017-04-03T09:08:33.726Z,992.03
2017-04-03T09:09:43.999Z,992.08
2017-04-03T09:10:54.261Z,992.05
2017-04-03T09:12:04.524Z,992.12
2017-04-03T09:13:14.783Z,992.06
2017-04-03T09:14:25.046Z,992.12
2017-04-03T09:15:34.996Z,992.18
2017-04-03T09:16:45.259Z,992.21
2017-04-03T09:17:55.525Z,992.25
2017-04-03T09:19:05.790Z,992.3
2017-04-03T09:20:16.052Z,992.25
2017-04-03T09:21:25.706Z,992.23
2017-04-03T09:22:35.342Z,992.2
2017-04-03T09:23:45.608Z,992.21
2017-04-03T09:24:55.871Z,992.15
2017-04-03T09:26:05.507Z,992.15
2017-04-03T09:27:15.778Z,992.1
2017-04-03T09:28:26.039Z,992.16
2017-04-03T09:29:35.673Z,992.12
2017-04-03T09:30:45.311Z,992.11
2017-04-03T09:31:55.262Z,992.11
2017-04-03T09:33:05.580Z,992.13
2017-04-03T09:34:15.836Z,992.16
2017-04-03T09:35:25.483Z,992.16
2017-04-03T09:36:35.751Z,992.17
2017-04-03T09:37:46.012Z,992.1
2017-04-03T09:38:56.277Z,992.04
2017-04-03T09:40:06.571Z,992
2017-04-03T09:41:16.518Z,992.01
2017-04-03T09:42:26.779Z,992.06
2017-04-03T09:43:37.047Z,992.05
2017-04-03T09:44:47.000Z,992.1
2017-04-03T09:45:56.636Z,992.08
2017-04-03T09:47:06.899Z,992.08
2017-04-03T09:48:17.161Z,992.11
2017-04-03T09:49:27.429Z,992.15
2017-04-03T09:50:37.380Z,992.17
2017-04-03T09:51:47.650Z,992.2
2017-04-03T09:52:57.955Z,992.16
2017-04-03T09:54:07.628Z,992.12
2017-04-03T09:55:17.905Z,992.07
2017-04-03T09:56:28.168Z,992.06
2017-04-03T09:57:38.128Z,992.06
2017-04-03T09:58:48.391Z,992.13
2017-04-03T09:59:58.653Z,992.09
2017-04-03T10:01:08.923Z,992.12
2017-04-03T10:02:19.191Z,992.15
2017-04-03T10:03:28.833Z,992.2
2017-04-03T10:04:38.470Z,992.19
2017-04-03T10:05:48.733Z,992.18
2017-04-03T10:06:58.998Z,992.1
2017-04-03T10:08:09.258Z,992.07
2017-04-03T10:09:19.523Z,992.04
2017-04-03T10:10:29.783Z,992.01
2017-04-03T10:11:39.734Z,991.98
2017-04-03T10:12:50.003Z,991.96
2017-04-03T10:14:00.312Z,992.02
2017-04-03T10:15:10.313Z,992.03
2017-04-03T10:16:20.626Z,992.04
2017-04-03T10:17:30.894Z,992
2017-04-03T10:18:40.848Z,992
2017-04-03T10:19:51.114Z,991.91
2017-04-03T10:21:01.383Z,991.92
2017-04-03T10:22:11.022Z,991.89
2017-04-03T10:23:21.287Z,991.85
2017-04-03T10:24:31.549Z,991.88
2017-04-03T10:25:41.807Z,991.86
2017-04-03T10:26:52.070Z,991.83
2017-04-03T10:28:02.331Z,991.81
2017-04-03T10:29:12.278Z,991.78
2017-04-03T10:30:22.543Z,991.73
2017-04-03T10:31:32.815Z,991.66
2017-04-03T10:32:43.085Z,991.68
2017-04-03T10:33:53.347Z,991.7
2017-04-03T10:35:03.653Z,991.69
2017-04-03T10:36:13.605Z,991.7
2017-04-03T10:37:23.873Z,991.72
2017-04-03T10:38:33.826Z,991.66
2017-04-03T10:39:44.101Z,991.7
2017-04-03T10:40:54.370Z,991.69
2017-04-03T10:42:04.642Z,991.69
2017-04-03T10:43:14.595Z,991.67
2017-04-03T10:44:24.861Z,991.65
2017-04-03T10:45:34.504Z,991.66
2017-04-03T10:46:44.456Z,991.63
2017-04-03T10:47:54.720Z,991.68
2017-04-03T10:49:04.983Z,991.61
2017-04-03T10:50:15.257Z,991.65
2017-04-03T10:51:25.212Z,991.68
2017-04-03T10:52:35.477Z,991.66
2017-04-03T10:53:45.752Z,991.72
2017-04-03T10:54:55.741Z,991.71
2017-04-03T10:56:05.510Z,991.66
2017-04-03T10:57:15.864Z,991.63
2017-04-03T10:58:26.129Z,991.65
2017-04-03T10:59:35.775Z,991.7
2017-04-03T11:00:45.418Z,991.69
2017-04-03T11:01:55.725Z,991.67
2017-04-03T11:03:05.369Z,991.69
2017-04-03T11:04:15.686Z,991.66
2017-04-03T11:05:25.644Z,991.6
2017-04-03T11:06:35.910Z,991.58
2017-04-03T11:07:45.911Z,991.57
2017-04-03T11:08:56.186Z,991.53
2017-04-03T11:10:06.457Z,991.46
2017-04-03T11:11:16.413Z,991.46
2017-04-03T11:12:26.676Z,991.44
2017-04-03T11:13:36.944Z,991.45
2017-04-03T11:14:46.630Z,991.47
2017-04-03T11:15:56.900Z,991.58
2017-04-03T11:17:07.170Z,991.5
2017-04-03T11:18:17.441Z,991.6
2017-04-03T11:19:27.408Z,991.63
2017-04-03T11:20:37.677Z,991.6
2017-04-03T11:21:47.947Z,991.46
2017-04-03T11:22:57.909Z,991.55
2017-04-03T11:24:07.870Z,991.56
2017-04-03T11:25:18.145Z,991.57
2017-04-03T11:26:28.416Z,991.55
2017-04-03T11:27:38.376Z,991.52
2017-04-03T11:28:48.646Z,991.6
2017-04-03T11:29:58.928Z,991.57
2017-04-03T11:31:09.200Z,991.61
2017-04-03T11:32:19.156Z,991.51
2017-04-03T11:33:29.433Z,991.57
2017-04-03T11:34:39.707Z,991.54
2017-04-03T11:35:49.667Z,991.54
2017-04-03T11:36:59.631Z,991.54
2017-04-03T11:38:09.592Z,991.55
2017-04-03T11:39:19.865Z,991.47
2017-04-03T11:40:29.821Z,991.51
2017-04-03T11:41:39.782Z,991.58
2017-04-03T11:42:49.743Z,991.62
2017-04-03T11:44:00.019Z,991.7
2017-04-03T11:45:10.301Z,991.77
2017-04-03T11:46:19.946Z,991.64
2017-04-03T11:47:29.590Z,991.63
2017-04-03T11:48:39.553Z,991.64
2017-04-03T11:49:49.829Z,991.62
2017-04-03T11:50:59.793Z,991.61
2017-04-03T11:52:09.755Z,991.47
2017-04-03T11:53:20.029Z,991.59
2017-04-03T11:54:30.310Z,991.7
2017-04-03T11:55:40.273Z,991.69
2017-04-03T11:56:49.917Z,991.8
2017-04-03T11:58:00.206Z,991.86
2017-04-03T11:59:10.479Z,991.79
2017-04-03T12:00:20.441Z,991.81
2017-04-03T12:01:30.403Z,991.81
2017-04-03T12:02:40.366Z,991.82
2017-04-03T12:03:50.323Z,991.85
2017-04-03T12:05:00.606Z,991.74
2017-04-03T12:06:10.569Z,991.79
2017-04-03T12:07:20.538Z,991.86
2017-04-03T12:08:30.498Z,991.85
2017-04-03T12:09:40.774Z,991.96
2017-04-03T12:10:50.740Z,992.09
2017-04-03T12:12:01.017Z,992.19
2017-04-03T12:13:10.990Z,992.28
2017-04-03T12:14:20.993Z,992.24
2017-04-03T12:15:31.270Z,992.1
2017-04-03T12:16:41.231Z,992.13
2017-04-03T12:17:51.197Z,992.23
2017-04-03T12:19:01.175Z,992.43
2017-04-03T12:20:11.454Z,992.42
2017-04-03T12:21:21.739Z,992.44
2017-04-03T12:22:32.024Z,992.51
2017-04-03T12:23:42.305Z,992.41
2017-04-03T12:24:52.268Z,992.35
2017-04-03T12:26:02.551Z,992.28
2017-04-03T12:27:12.829Z,992.41
2017-04-03T12:28:23.111Z,992.39
2017-04-03T12:29:33.388Z,992.43
2017-04-03T12:30:43.349Z,992.5
2017-04-03T12:31:53.634Z,992.66
2017-04-03T12:33:03.914Z,992.45
2017-04-03T12:34:13.879Z,992.38
2017-04-03T12:35:24.153Z,992.1
2017-04-03T12:36:34.432Z,992.28
2017-04-03T12:37:44.393Z,992.17
2017-04-03T12:38:54.670Z,992.24
2017-04-03T12:40:04.950Z,992.22
2017-04-03T12:41:15.228Z,992.3
2017-04-03T12:42:25.194Z,992.26
2017-04-03T12:43:35.468Z,992.22
2017-04-03T12:44:45.742Z,992.13
2017-04-03T12:45:56.024Z,992.21
2017-04-03T12:47:06.304Z,992.1
2017-04-03T12:48:16.587Z,992.09
2017-04-03T12:49:26.552Z,992.1
2017-04-03T12:50:36.838Z,992.03
2017-04-03T12:51:46.805Z,992.09
2017-04-03T12:52:57.078Z,992.1
2017-04-03T12:54:07.358Z,992.08
2017-04-03T12:55:17.003Z,992.05
2017-04-03T12:56:27.286Z,992.15
2017-04-03T12:57:37.601Z,992.23
2017-04-03T12:58:47.870Z,992.22
2017-04-03T12:59:58.140Z,992.25
2017-04-03T13:01:08.423Z,992.27
2017-04-03T13:02:18.706Z,992.15
2017-04-03T13:03:28.989Z,992.25
2017-04-03T13:04:39.271Z,992.23
2017-04-03T13:05:49.550Z,992.15
2017-04-03T13:06:59.844Z,992.17
2017-04-03T13:08:10.120Z,992.16
2017-04-03T13:09:20.122Z,992.21
2017-04-03T13:10:30.399Z,992.21
2017-04-03T13:11:40.371Z,992.06
2017-04-03T13:12:50.686Z,992.01
2017-04-03T13:14:00.960Z,992.02
2017-04-03T13:15:11.193Z,991.92
2017-04-03T13:16:21.801Z,991.77
2017-04-03T13:17:32.350Z,991.66
2017-04-03T13:18:42.522Z,991.66
2017-04-03T13:19:53.081Z,991.59
2017-04-03T13:21:03.253Z,991.59
2017-04-03T13:22:13.538Z,991.61
2017-04-03T13:23:23.821Z,991.59
2017-04-03T13:24:34.134Z,991.48
2017-04-03T13:25:44.418Z,991.73
2017-04-03T13:26:54.697Z,991.91
2017-04-03T13:28:04.971Z,992.09
2017-04-03T13:29:14.624Z,992.16
2017-04-03T13:30:24.943Z,992.43
2017-04-03T13:31:35.226Z,992.5
2017-04-03T13:32:44.895Z,992.66
2017-04-03T13:33:55.184Z,992.54
2017-04-03T13:35:05.464Z,992.5
2017-04-03T13:36:15.739Z,992.37
2017-04-03T13:37:25.391Z,992.4
2017-04-03T13:38:35.669Z,992.38
2017-04-03T13:39:45.668Z,992.34
2017-04-03T13:40:55.636Z,992.18
2017-04-03T13:42:05.911Z,992.17
2017-04-03T13:43:16.189Z,992.06
2017-04-03T13:44:26.463Z,992.26
2017-04-03T13:45:36.741Z,992.18
2017-04-03T13:46:46.738Z,992.08
2017-04-03T13:47:56.706Z,992
2017-04-03T13:49:06.673Z,991.97
2017-04-03T13:50:16.954Z,991.8
2017-04-03T13:51:26.920Z,991.59
2017-04-03T13:52:37.194Z,991.23
2017-04-03T13:53:47.158Z,991.11
2017-04-03T13:54:57.120Z,991.3
2017-04-03T13:56:07.422Z,991.24
2017-04-03T13:57:17.694Z,991.12
2017-04-03T13:58:27.970Z,991.43
2017-04-03T13:59:38.289Z,991.32
2017-04-03T14:00:48.567Z,991.11
2017-04-03T14:01:58.525Z,990.97
2017-04-03T14:03:08.799Z,990.88
2017-04-03T14:04:18.762Z,990.8
2017-04-03T14:05:28.722Z,990.8
2017-04-03T14:06:38.364Z,990.92
2017-04-03T14:07:48.321Z,991.41
2017-04-03T14:08:58.275Z,991.78
2017-04-03T14:10:08.541Z,991.36
2017-04-03T14:11:18.506Z,991.1
2017-04-03T14:12:28.783Z,991.15
2017-04-03T14:13:39.053Z,991.38
2017-04-03T14:14:48.708Z,991.88
2017-04-03T14:15:58.662Z,991.86
2017-04-03T14:17:08.957Z,991.73
2017-04-03T14:18:19.232Z,991.54
2017-04-03T14:19:29.503Z,991.71
2017-04-03T14:20:39.466Z,991.73
2017-04-03T14:21:49.735Z,991.77
2017-04-03T14:22:59.387Z,991.75
2017-04-03T14:24:09.662Z,991.74
2017-04-03T14:25:19.932Z,991.77
2017-04-03T14:26:30.200Z,991.87
2017-04-03T14:27:39.846Z,991.9
2017-04-03T14:28:50.160Z,991.94
2017-04-03T14:29:59.805Z,991.89
2017-04-03T14:31:09.761Z,991.87
2017-04-03T14:32:19.724Z,991.87
2017-04-03T14:33:29.100Z,991.83
2017-04-03T14:34:39.058Z,991.88
2017-04-03T14:35:49.017Z,991.73
2017-04-03T14:36:58.974Z,991.59
2017-04-03T14:38:08.943Z,991.45
2017-04-03T14:39:19.223Z,991.36
2017-04-03T14:40:29.497Z,991.2
2017-04-03T14:41:39.782Z,991.14